createdAt,value
2022-12-07T00:00:51.248Z,993.86
2022-12-07T00:01:51.359Z,993.81
2022-12-07T00:02:51.215Z,993.80
2022-12-07T00:03:51.377Z,993.86
2022-12-07T00:04:51.234Z,993.76
2022-12-07T00:05:51.226Z,993.81
2022-12-07T00:06:51.209Z,993.79
2022-12-07T00:07:51.281Z,993.78
2022-12-07T00:08:51.190Z,993.79
2022-12-07T00:09:51.196Z,993.76
2022-12-07T00:10:51.174Z,993.78
2022-12-07T00:11:51.207Z,993.73
2022-12-07T00:12:51.169Z,993.76
2022-12-07T00:13:51.156Z,993.73
2022-12-07T00:14:52.183Z,993.73
2022-12-07T00:15:51.174Z,993.74
2022-12-07T00:16:51.248Z,993.78
2022-12-07T00:17:51.160Z,993.66
2022-12-07T00:18:51.116Z,993.69
2022-12-07T00:19:51.150Z,993.60
2022-12-07T00:20:51.129Z,993.70
2022-12-07T00:21:51.114Z,993.68
2022-12-07T00:22:51.090Z,993.64
2022-12-07T00:23:51.112Z,993.64
2022-12-07T00:24:51.089Z,993.59
2022-12-07T00:25:51.092Z,993.57
2022-12-07T00:26:51.076Z,993.54
2022-12-07T00:27:51.087Z,993.50
2022-12-07T00:28:51.056Z,993.53
2022-12-07T00:29:51.074Z,993.51
2022-12-07T00:30:51.039Z,993.54
2022-12-07T00:31:51.185Z,993.55
2022-12-07T00:32:51.048Z,993.52
2022-12-07T00:33:51.025Z,993.51
2022-12-07T00:34:51.024Z,993.51
2022-12-07T00:35:51.028Z,993.45
2022-12-07T00:36:51.041Z,993.43
2022-12-07T00:37:51.021Z,993.46
2022-12-07T00:38:51.007Z,993.42
2022-12-07T00:39:50.991Z,993.44
2022-12-07T00:40:50.973Z,993.38
2022-12-07T00:41:51.006Z,993.40
2022-12-07T00:42:50.971Z,993.40
2022-12-07T00:43:50.984Z,993.39
2022-12-07T00:44:50.962Z,993.42
2022-12-07T00:45:51.076Z,993.38
2022-12-07T00:46:51.453Z,993.35
2022-12-07T00:47:50.963Z,993.38
2022-12-07T00:48:50.923Z,993.42
2022-12-07T00:49:50.942Z,993.37
2022-12-07T00:50:50.913Z,993.42
2022-12-07T00:51:50.940Z,993.35
2022-12-07T00:52:50.909Z,993.37
2022-12-07T00:53:50.919Z,993.34
2022-12-07T00:54:50.884Z,993.36
2022-12-07T00:55:50.899Z,993.32
2022-12-07T00:56:50.941Z,993.31
2022-12-07T00:57:50.869Z,993.33
2022-12-07T00:58:50.863Z,993.24
2022-12-07T00:59:50.874Z,993.27
2022-12-07T01:00:50.853Z,993.26
2022-12-07T01:01:50.955Z,993.28
2022-12-07T01:02:50.882Z,993.26
2022-12-07T01:03:50.885Z,993.20
2022-12-07T01:04:50.840Z,993.22
2022-12-07T01:05:50.812Z,993.20
2022-12-07T01:06:50.913Z,993.19
2022-12-07T01:07:50.867Z,993.19
2022-12-07T01:08:50.793Z,993.11
2022-12-07T01:09:50.804Z,993.14
2022-12-07T01:10:50.789Z,993.18
2022-12-07T01:11:50.813Z,993.15
2022-12-07T01:12:50.781Z,993.13
2022-12-07T01:13:50.777Z,993.06
2022-12-07T01:14:50.756Z,993.09
2022-12-07T01:15:50.763Z,993.04
2022-12-07T01:16:50.833Z,993.04
2022-12-07T01:17:50.756Z,993.07
2022-12-07T01:18:50.737Z,993.09
2022-12-07T01:19:50.762Z,993.07
2022-12-07T01:20:50.723Z,993.04
2022-12-07T01:21:50.718Z,993.07
2022-12-07T01:22:50.724Z,993.09
2022-12-07T01:23:50.721Z,993.03
2022-12-07T01:24:50.689Z,993.09
2022-12-07T01:25:50.701Z,993.07
2022-12-07T01:26:50.688Z,993.06
2022-12-07T01:27:50.678Z,993.01
2022-12-07T01:28:50.659Z,993.07
2022-12-07T01:29:50.680Z,993.07
2022-12-07T01:30:50.781Z,992.98
2022-12-07T01:31:50.639Z,993.02
2022-12-07T01:32:50.643Z,993.04
2022-12-07T01:33:50.639Z,993.03
2022-12-07T01:34:50.637Z,993.11
2022-12-07T01:35:50.648Z,993.02
2022-12-07T01:36:50.611Z,993.02
2022-12-07T01:37:50.619Z,993.05
2022-12-07T01:38:50.602Z,992.98
2022-12-07T01:39:50.617Z,993.00
2022-12-07T01:40:50.605Z,992.98
2022-12-07T01:41:50.583Z,993.03
2022-12-07T01:42:50.565Z,993.03
2022-12-07T01:43:50.589Z,993.03
2022-12-07T01:44:50.571Z,993.04
2022-12-07T01:45:50.668Z,992.97
2022-12-07T01:46:50.555Z,993.03
2022-12-07T01:47:50.541Z,993.03
2022-12-07T01:48:50.526Z,993.06
2022-12-07T01:49:50.538Z,993.07
2022-12-07T01:50:50.516Z,993.09
2022-12-07T01:51:50.575Z,993.08
2022-12-07T01:52:50.511Z,993.12
2022-12-07T01:53:50.508Z,993.12
2022-12-07T01:54:50.497Z,993.09
2022-12-07T01:55:50.485Z,993.06
2022-12-07T01:56:50.471Z,993.10
2022-12-07T01:57:50.496Z,993.12
2022-12-07T01:58:50.510Z,993.04
2022-12-07T01:59:50.463Z,993.07
2022-12-07T02:00:50.457Z,993.00
2022-12-07T02:01:50.541Z,992.98
2022-12-07T02:02:50.525Z,993.04
2022-12-07T02:03:50.475Z,992.97
2022-12-07T02:04:50.431Z,993.02
2022-12-07T02:05:50.431Z,993.04
2022-12-07T02:06:50.439Z,993.04
2022-12-07T02:07:50.625Z,993.00
2022-12-07T02:08:50.411Z,993.02
2022-12-07T02:09:50.421Z,992.99
2022-12-07T02:10:50.379Z,992.94
2022-12-07T02:11:50.450Z,992.96
2022-12-07T02:12:50.380Z,992.92
2022-12-07T02:13:50.374Z,992.92
2022-12-07T02:14:50.379Z,992.92
2022-12-07T02:15:50.468Z,992.87
2022-12-07T02:16:50.352Z,992.88
2022-12-07T02:17:50.356Z,992.92
2022-12-07T02:18:50.325Z,992.90
2022-12-07T02:19:50.348Z,992.90
2022-12-07T02:20:50.330Z,992.86
2022-12-07T02:21:50.339Z,992.87
2022-12-07T02:22:50.315Z,992.83
2022-12-07T02:23:50.386Z,992.86
2022-12-07T02:24:50.305Z,992.84
2022-12-07T02:25:50.277Z,992.75
2022-12-07T02:26:50.288Z,992.83
2022-12-07T02:27:50.280Z,992.82
2022-12-07T02:28:50.264Z,992.81
2022-12-07T02:29:50.251Z,992.79
2022-12-07T02:30:50.325Z,992.71
2022-12-07T02:31:50.262Z,992.76
2022-12-07T02:32:50.243Z,992.81
2022-12-07T02:33:50.239Z,992.80
2022-12-07T02:34:50.240Z,992.71
2022-12-07T02:35:50.212Z,992.68
2022-12-07T02:36:50.279Z,992.73
2022-12-07T02:37:50.213Z,992.68
2022-12-07T02:38:50.211Z,992.66
2022-12-07T02:39:50.231Z,992.64
2022-12-07T02:40:50.201Z,992.67
2022-12-07T02:41:50.180Z,992.72
2022-12-07T02:42:50.175Z,992.73
2022-12-07T02:43:50.180Z,992.67
2022-12-07T02:44:50.174Z,992.74
2022-12-07T02:45:50.233Z,992.67
2022-12-07T02:46:50.193Z,992.72
2022-12-07T02:47:50.129Z,992.67
2022-12-07T02:48:50.151Z,992.73
2022-12-07T02:49:50.127Z,992.75
2022-12-07T02:50:50.144Z,992.67
2022-12-07T02:51:50.121Z,992.67
2022-12-07T02:52:50.129Z,992.67
2022-12-07T02:53:50.118Z,992.59
2022-12-07T02:54:50.101Z,992.64
2022-12-07T02:55:50.104Z,992.66
2022-12-07T02:56:50.106Z,992.67
2022-12-07T02:57:50.070Z,992.62
2022-12-07T02:58:50.112Z,992.63
2022-12-07T02:59:50.105Z,992.71
2022-12-07T03:00:50.061Z,992.70
2022-12-07T03:01:50.167Z,992.60
2022-12-07T03:02:50.164Z,992.68
2022-12-07T03:03:50.037Z,992.63
2022-12-07T03:04:50.028Z,992.67
2022-12-07T03:05:50.035Z,992.73
2022-12-07T03:06:50.036Z,992.63
2022-12-07T03:07:50.052Z,992.66
2022-12-07T03:08:50.025Z,992.67
2022-12-07T03:09:50.035Z,992.63
2022-12-07T03:10:50.015Z,992.66
2022-12-07T03:11:50.012Z,992.68
2022-12-07T03:12:49.984Z,992.70
2022-12-07T03:13:49.971Z,992.70
2022-12-07T03:14:49.961Z,992.72
2022-12-07T03:15:50.004Z,992.69
2022-12-07T03:16:49.964Z,992.63
2022-12-07T03:17:49.960Z,992.63
2022-12-07T03:18:49.928Z,992.61
2022-12-07T03:19:49.934Z,992.59
2022-12-07T03:20:49.923Z,992.56
2022-12-07T03:21:49.926Z,992.60
2022-12-07T03:22:49.920Z,992.64
2022-12-07T03:23:49.912Z,992.54
2022-12-07T03:24:49.888Z,992.58
2022-12-07T03:25:49.898Z,992.54
2022-12-07T03:26:49.870Z,992.55
2022-12-07T03:27:49.906Z,992.53
2022-12-07T03:28:49.894Z,992.50
2022-12-07T03:29:49.861Z,992.52
2022-12-07T03:30:49.925Z,992.47
2022-12-07T03:31:49.864Z,992.48
2022-12-07T03:32:50.167Z,992.55
2022-12-07T03:33:49.838Z,992.47
2022-12-07T03:34:49.841Z,992.54
2022-12-07T03:35:49.839Z,992.49
2022-12-07T03:36:49.808Z,992.49
2022-12-07T03:37:49.839Z,992.47
2022-12-07T03:38:49.792Z,992.53
2022-12-07T03:39:49.793Z,992.52
2022-12-07T03:40:49.887Z,992.52
2022-12-07T03:41:49.841Z,992.57
2022-12-07T03:42:49.792Z,992.60
2022-12-07T03:43:49.801Z,992.64
2022-12-07T03:44:49.750Z,992.60
2022-12-07T03:45:49.772Z,992.60
2022-12-07T03:46:49.849Z,992.59
2022-12-07T03:47:49.736Z,992.55
2022-12-07T03:48:49.737Z,992.64
2022-12-07T03:49:49.745Z,992.63
2022-12-07T03:50:49.721Z,992.65
2022-12-07T03:51:49.718Z,992.57
2022-12-07T03:52:49.703Z,992.68
2022-12-07T03:53:49.793Z,992.68
2022-12-07T03:54:49.724Z,992.62
2022-12-07T03:55:49.706Z,992.66
2022-12-07T03:56:49.680Z,992.63
2022-12-07T03:57:49.693Z,992.65
2022-12-07T03:58:49.666Z,992.68
2022-12-07T03:59:49.703Z,992.56
2022-12-07T04:00:49.660Z,992.60
2022-12-07T04:01:49.814Z,992.59
2022-12-07T04:02:49.693Z,992.57
2022-12-07T04:03:49.647Z,992.56
2022-12-07T04:04:49.625Z,992.57
2022-12-07T04:05:49.629Z,992.57
2022-12-07T04:06:49.634Z,992.57
2022-12-07T04:07:49.707Z,992.58
2022-12-07T04:08:49.593Z,992.49
2022-12-07T04:09:49.608Z,992.60
2022-12-07T04:10:49.579Z,992.56
2022-12-07T04:11:49.582Z,992.56
2022-12-07T04:12:49.588Z,992.54
2022-12-07T04:13:49.585Z,992.55
2022-12-07T04:14:49.581Z,992.57
2022-12-07T04:15:49.652Z,992.53
2022-12-07T04:16:49.543Z,992.52
2022-12-07T04:17:49.558Z,992.58
2022-12-07T04:18:49.525Z,992.56
2022-12-07T04:19:49.543Z,992.61
2022-12-07T04:20:49.527Z,992.58
2022-12-07T04:21:49.540Z,992.57
2022-12-07T04:22:49.565Z,992.54
2022-12-07T04:23:49.540Z,992.54
2022-12-07T04:24:49.488Z,992.57
2022-12-07T04:25:49.503Z,992.56
2022-12-07T04:26:49.482Z,992.55
2022-12-07T04:27:49.495Z,992.55
2022-12-07T04:28:49.487Z,992.52
2022-12-07T04:29:49.464Z,992.53
2022-12-07T04:30:49.464Z,992.51
2022-12-07T04:31:49.581Z,992.51
2022-12-07T04:32:49.437Z,992.43
2022-12-07T04:33:49.453Z,992.45
2022-12-07T04:34:54.131Z,992.48
2022-12-07T04:35:50.422Z,992.50
2022-12-07T04:36:49.419Z,992.48
2022-12-07T04:37:49.437Z,992.47
2022-12-07T04:38:49.395Z,992.46
2022-12-07T04:39:49.403Z,992.45
2022-12-07T04:40:49.398Z,992.45
2022-12-07T04:41:49.384Z,992.48
2022-12-07T04:42:49.390Z,992.52
2022-12-07T04:43:49.379Z,992.47
2022-12-07T04:44:49.350Z,992.47
2022-12-07T04:45:49.399Z,992.52
2022-12-07T04:46:49.408Z,992.54
2022-12-07T04:47:49.376Z,992.59
2022-12-07T04:48:49.348Z,992.58
2022-12-07T04:49:49.331Z,992.57
2022-12-07T04:50:49.325Z,992.59
2022-12-07T04:51:49.348Z,992.60
2022-12-07T04:52:49.311Z,992.62
2022-12-07T04:53:49.316Z,992.59
2022-12-07T04:54:49.331Z,992.58
2022-12-07T04:55:49.321Z,992.55
2022-12-07T04:56:49.292Z,992.59
2022-12-07T04:57:49.290Z,992.54
2022-12-07T04:58:49.263Z,992.56
2022-12-07T04:59:49.262Z,992.57
2022-12-07T05:00:49.317Z,992.54
2022-12-07T05:01:49.354Z,992.59
2022-12-07T05:02:49.247Z,992.56
2022-12-07T05:03:49.274Z,992.58
2022-12-07T05:04:49.250Z,992.58
2022-12-07T05:05:51.095Z,992.60
2022-12-07T05:06:49.449Z,992.60
2022-12-07T05:07:49.451Z,992.62
2022-12-07T05:08:49.359Z,992.61
2022-12-07T05:09:49.208Z,992.56
2022-12-07T05:10:49.208Z,992.57
2022-12-07T05:11:49.183Z,992.57
2022-12-07T05:12:49.178Z,992.62
2022-12-07T05:13:49.163Z,992.60
2022-12-07T05:14:49.314Z,992.59
2022-12-07T05:15:49.256Z,992.56
2022-12-07T05:16:49.220Z,992.64
2022-12-07T05:17:49.159Z,992.65
2022-12-07T05:18:49.131Z,992.64
2022-12-07T05:19:49.162Z,992.67
2022-12-07T05:20:49.128Z,992.65
2022-12-07T05:21:49.113Z,992.70
2022-12-07T05:22:49.123Z,992.66
2022-12-07T05:23:49.093Z,992.59
2022-12-07T05:24:49.115Z,992.61
2022-12-07T05:25:49.082Z,992.60
2022-12-07T05:26:49.105Z,992.62
2022-12-07T05:27:49.078Z,992.57
2022-12-07T05:28:49.068Z,992.62
2022-12-07T05:29:49.071Z,992.58
2022-12-07T05:30:49.110Z,992.53
2022-12-07T05:31:49.145Z,992.58
2022-12-07T05:32:49.079Z,992.57
2022-12-07T05:33:49.042Z,992.57
2022-12-07T05:34:49.034Z,992.59
2022-12-07T05:35:49.049Z,992.59
2022-12-07T05:36:49.032Z,992.57
2022-12-07T05:37:49.021Z,992.55
2022-12-07T05:38:49.100Z,992.53
2022-12-07T05:39:48.996Z,992.52
2022-12-07T05:40:49.000Z,992.58
2022-12-07T05:41:48.986Z,992.50
2022-12-07T05:42:48.993Z,992.50
2022-12-07T05:43:48.991Z,992.47
2022-12-07T05:44:48.976Z,992.52
2022-12-07T05:45:49.002Z,992.46
2022-12-07T05:46:49.024Z,992.48
2022-12-07T05:47:48.947Z,992.53
2022-12-07T05:48:49.064Z,992.55
2022-12-07T05:49:48.943Z,992.52
2022-12-07T05:50:48.946Z,992.56
2022-12-07T05:51:49.000Z,992.50
2022-12-07T05:52:48.949Z,992.56
2022-12-07T05:53:48.904Z,992.54
2022-12-07T05:54:48.930Z,992.52
2022-12-07T05:55:49.069Z,992.53
2022-12-07T05:56:48.904Z,992.47
2022-12-07T05:57:48.898Z,992.50
2022-12-07T05:58:48.873Z,992.48
2022-12-07T05:59:48.891Z,992.53
2022-12-07T06:00:51.274Z,992.48
2022-12-07T06:01:48.899Z,992.52
2022-12-07T06:02:49.049Z,992.52
2022-12-07T06:03:48.836Z,992.50
2022-12-07T06:04:48.857Z,992.51
2022-12-07T06:05:48.892Z,992.49
2022-12-07T06:06:48.834Z,992.50
2022-12-07T06:07:48.899Z,992.44
2022-12-07T06:08:48.817Z,992.46
2022-12-07T06:09:48.863Z,992.49
2022-12-07T06:10:48.837Z,992.41
2022-12-07T06:11:48.923Z,992.39
2022-12-07T06:12:48.787Z,992.40
2022-12-07T06:13:48.784Z,992.47
2022-12-07T06:14:48.784Z,992.47
2022-12-07T06:15:48.755Z,992.42
2022-12-07T06:16:48.852Z,992.37
2022-12-07T06:17:48.737Z,992.40
2022-12-07T06:18:48.739Z,992.40
2022-12-07T06:19:48.778Z,992.36
2022-12-07T06:20:48.726Z,992.43
2022-12-07T06:21:48.718Z,992.36
2022-12-07T06:22:48.735Z,992.34
2022-12-07T06:23:48.721Z,992.35
2022-12-07T06:24:48.722Z,992.29
2022-12-07T06:25:48.689Z,992.38
2022-12-07T06:26:48.683Z,992.37
2022-12-07T06:27:48.695Z,992.35
2022-12-07T06:28:48.661Z,992.40
2022-12-07T06:29:48.690Z,992.37
2022-12-07T06:30:48.695Z,992.36
2022-12-07T06:31:48.754Z,992.35
2022-12-07T06:32:48.652Z,992.39
2022-12-07T06:33:48.628Z,992.40
2022-12-07T06:34:48.655Z,992.40
2022-12-07T06:35:48.626Z,992.43
2022-12-07T06:36:48.618Z,992.42
2022-12-07T06:37:48.613Z,992.39
2022-12-07T06:38:48.615Z,992.44
2022-12-07T06:39:48.609Z,992.50
2022-12-07T06:40:48.602Z,992.43
2022-12-07T06:41:48.578Z,992.52
2022-12-07T06:42:48.682Z,992.51
2022-12-07T06:43:54.253Z,992.50
2022-12-07T06:44:49.603Z,992.52
2022-12-07T06:45:48.589Z,992.47
2022-12-07T06:46:48.571Z,992.46
2022-12-07T06:47:48.548Z,992.46
2022-12-07T06:48:48.533Z,992.50
2022-12-07T06:49:48.541Z,992.52
2022-12-07T06:50:54.175Z,992.52
2022-12-07T06:51:49.514Z,992.48
2022-12-07T06:52:48.522Z,992.52
2022-12-07T06:53:48.500Z,992.53
2022-12-07T06:54:48.506Z,992.55
2022-12-07T06:55:48.526Z,992.54
2022-12-07T06:56:48.484Z,992.60
2022-12-07T06:57:48.490Z,992.56
2022-12-07T06:58:48.491Z,992.56
2022-12-07T06:59:48.458Z,992.62
2022-12-07T07:00:48.519Z,992.60
2022-12-07T07:01:48.543Z,992.56
2022-12-07T07:02:48.591Z,992.61
2022-12-07T07:03:48.432Z,992.60
2022-12-07T07:04:48.460Z,992.62
2022-12-07T07:05:48.438Z,992.56
2022-12-07T07:06:48.430Z,992.64
2022-12-07T07:08:20.240Z,992.66
2022-12-07T07:08:49.506Z,992.74
2022-12-07T07:09:48.410Z,992.64
2022-12-07T07:10:48.421Z,992.68
2022-12-07T07:11:48.409Z,992.73
2022-12-07T07:12:50.874Z,992.68
2022-12-07T07:13:49.365Z,992.69
2022-12-07T07:14:48.390Z,992.67
2022-12-07T07:15:48.369Z,992.67
2022-12-07T07:16:48.452Z,992.67
2022-12-07T07:17:48.343Z,992.73
2022-12-07T07:18:48.340Z,992.68
2022-12-07T07:19:48.335Z,992.69
2022-12-07T07:20:48.336Z,992.73
2022-12-07T07:21:48.327Z,992.67
2022-12-07T07:22:48.332Z,992.73
2022-12-07T07:23:48.303Z,992.66
2022-12-07T07:24:48.320Z,992.67
2022-12-07T07:25:48.289Z,992.62
2022-12-07T07:26:48.298Z,992.58
2022-12-07T07:27:48.309Z,992.66
2022-12-07T07:28:48.289Z,992.54
2022-12-07T07:29:48.271Z,992.53
2022-12-07T07:30:48.314Z,992.52
2022-12-07T07:31:48.246Z,992.56
2022-12-07T07:32:48.252Z,992.55
2022-12-07T07:33:48.252Z,992.57
2022-12-07T07:34:48.228Z,992.60
2022-12-07T07:35:48.239Z,992.60
2022-12-07T07:36:48.231Z,992.57
2022-12-07T07:37:48.225Z,992.61
2022-12-07T07:38:48.209Z,992.64
2022-12-07T07:39:48.199Z,992.66
2022-12-07T07:40:48.205Z,992.71
2022-12-07T07:41:48.192Z,992.66
2022-12-07T07:42:48.171Z,992.70
2022-12-07T07:43:48.211Z,992.69
2022-12-07T07:44:48.163Z,992.67
2022-12-07T07:45:48.253Z,992.65
2022-12-07T07:46:48.157Z,992.72
2022-12-07T07:47:48.163Z,992.70
2022-12-07T07:48:48.140Z,992.73
2022-12-07T07:49:48.502Z,992.71
2022-12-07T07:50:48.128Z,992.77
2022-12-07T07:51:48.130Z,992.76
2022-12-07T07:52:48.121Z,992.82
2022-12-07T07:53:48.109Z,992.77
2022-12-07T07:54:48.101Z,992.77
2022-12-07T07:55:48.116Z,992.80
2022-12-07T07:56:48.096Z,992.82
2022-12-07T07:57:54.200Z,992.78
2022-12-07T07:58:48.100Z,992.79
2022-12-07T07:59:48.091Z,992.80
2022-12-07T08:00:48.065Z,992.85
2022-12-07T08:01:48.164Z,992.80
2022-12-07T08:02:48.053Z,992.79
2022-12-07T08:03:48.061Z,992.89
2022-12-07T08:04:48.107Z,992.81
2022-12-07T08:05:48.026Z,992.78
2022-12-07T08:06:48.019Z,992.83
2022-12-07T08:07:48.073Z,992.81
2022-12-07T08:08:48.007Z,992.87
2022-12-07T08:09:48.028Z,992.88
2022-12-07T08:10:48.002Z,992.79
2022-12-07T08:11:47.996Z,992.85
2022-12-07T08:12:47.988Z,992.81
2022-12-07T08:13:47.991Z,992.79
2022-12-07T08:14:47.971Z,992.84
2022-12-07T08:15:48.197Z,992.80
2022-12-07T08:16:47.975Z,992.77
2022-12-07T08:17:47.967Z,992.80
2022-12-07T08:18:47.952Z,992.79
2022-12-07T08:19:47.945Z,992.80
2022-12-07T08:20:47.936Z,992.80
2022-12-07T08:21:47.927Z,992.73
2022-12-07T08:22:47.946Z,992.79
2022-12-07T08:23:47.934Z,992.82
2022-12-07T08:24:47.928Z,992.82
2022-12-07T08:25:47.894Z,992.83
2022-12-07T08:26:47.916Z,992.78
2022-12-07T08:27:47.878Z,992.84
2022-12-07T08:28:47.901Z,992.84
2022-12-07T08:29:47.872Z,992.77
2022-12-07T08:30:47.889Z,992.81
2022-12-07T08:31:47.888Z,992.86
2022-12-07T08:32:47.860Z,992.82
2022-12-07T08:33:47.837Z,992.81
2022-12-07T08:34:48.001Z,992.85
2022-12-07T08:35:47.824Z,992.88
2022-12-07T08:36:47.877Z,992.85
2022-12-07T08:37:47.826Z,992.89
2022-12-07T08:39:22.499Z,992.84
2022-12-07T08:39:48.814Z,992.87
2022-12-07T08:40:47.806Z,992.87
2022-12-07T08:41:47.807Z,992.92
2022-12-07T08:42:47.800Z,992.95
2022-12-07T08:43:47.779Z,992.90
2022-12-07T08:44:47.805Z,992.95
2022-12-07T08:45:47.777Z,992.93
2022-12-07T08:46:47.938Z,992.97
2022-12-07T08:47:47.782Z,992.90
2022-12-07T08:48:47.750Z,992.94
2022-12-07T08:49:47.728Z,992.91
2022-12-07T08:50:49.939Z,992.98
2022-12-07T08:51:47.777Z,992.97
2022-12-07T08:52:47.721Z,992.99
2022-12-07T08:53:47.703Z,993.05
2022-12-07T08:54:47.742Z,993.02
2022-12-07T08:55:47.697Z,992.97
2022-12-07T08:56:47.714Z,992.99
2022-12-07T08:57:47.695Z,993.02
2022-12-07T08:58:47.925Z,992.94
2022-12-07T08:59:47.704Z,992.97
2022-12-07T09:00:47.666Z,992.93
2022-12-07T09:01:47.691Z,992.92
2022-12-07T09:02:47.696Z,993.03
2022-12-07T09:03:47.664Z,992.98
2022-12-07T09:04:47.651Z,992.89
2022-12-07T09:05:47.724Z,992.91
2022-12-07T09:06:47.801Z,992.97
2022-12-07T09:07:47.692Z,992.99
2022-12-07T09:08:47.636Z,992.95
2022-12-07T09:09:47.613Z,992.95
2022-12-07T09:10:47.613Z,992.95
2022-12-07T09:11:47.595Z,992.91
2022-12-07T09:12:47.587Z,992.98
2022-12-07T09:13:47.581Z,992.96
2022-12-07T09:14:47.591Z,992.95
2022-12-07T09:15:47.654Z,992.89
2022-12-07T09:16:47.574Z,992.99
2022-12-07T09:17:47.565Z,992.96
2022-12-07T09:18:47.569Z,992.95
2022-12-07T09:19:47.575Z,992.89
2022-12-07T09:20:47.533Z,992.96
2022-12-07T09:21:47.534Z,992.91
2022-12-07T09:22:47.535Z,992.98
2022-12-07T09:23:47.546Z,992.92
2022-12-07T09:24:47.505Z,992.92
2022-12-07T09:25:47.493Z,992.89
2022-12-07T09:26:47.524Z,992.80
2022-12-07T09:27:47.483Z,992.80
2022-12-07T09:28:47.513Z,992.87
2022-12-07T09:29:47.499Z,992.89
2022-12-07T09:31:21.776Z,992.87
2022-12-07T09:31:48.513Z,992.89
2022-12-07T09:32:47.463Z,992.84
2022-12-07T09:33:47.475Z,992.89
2022-12-07T09:34:47.636Z,992.83
2022-12-07T09:35:47.482Z,992.83
2022-12-07T09:36:47.466Z,992.86
2022-12-07T09:37:47.438Z,992.85
2022-12-07T09:38:47.416Z,992.87
2022-12-07T09:39:50.371Z,992.89
2022-12-07T09:40:47.407Z,992.84
2022-12-07T09:41:47.388Z,992.81
2022-12-07T09:42:47.522Z,992.79
2022-12-07T09:43:47.383Z,992.80
2022-12-07T09:44:47.404Z,992.79
2022-12-07T09:45:48.825Z,992.77
2022-12-07T09:46:47.427Z,992.78
2022-12-07T09:47:47.394Z,992.82
2022-12-07T09:48:47.352Z,992.80
2022-12-07T09:49:47.353Z,992.89
2022-12-07T09:50:47.359Z,992.85
2022-12-07T09:51:47.376Z,992.82
2022-12-07T09:52:47.346Z,992.84
2022-12-07T09:53:47.326Z,992.73
2022-12-07T09:54:47.319Z,992.83
2022-12-07T09:55:47.302Z,992.89
2022-12-07T09:56:47.325Z,992.82
2022-12-07T09:57:47.305Z,992.90
2022-12-07T09:58:47.289Z,992.83
2022-12-07T09:59:47.290Z,992.88
2022-12-07T10:00:47.281Z,992.78
2022-12-07T10:01:47.303Z,992.77
2022-12-07T10:02:47.285Z,992.73
2022-12-07T10:03:47.271Z,992.74
2022-12-07T10:04:47.347Z,992.68
2022-12-07T10:05:47.326Z,992.61
2022-12-07T10:06:47.241Z,992.61
2022-12-07T10:07:47.326Z,992.69
2022-12-07T10:08:47.225Z,992.64
2022-12-07T10:09:47.240Z,992.66
2022-12-07T10:10:47.233Z,992.59
2022-12-07T10:11:47.219Z,992.65
2022-12-07T10:12:47.208Z,992.61
2022-12-07T10:13:47.186Z,992.66
2022-12-07T10:15:48.216Z,992.58
2022-12-07T10:16:47.300Z,992.65
2022-12-07T10:17:47.173Z,992.65
2022-12-07T10:18:47.379Z,992.63
2022-12-07T10:19:47.270Z,992.62
2022-12-07T10:20:47.153Z,992.57
2022-12-07T10:21:47.136Z,992.59
2022-12-07T10:22:47.150Z,992.53
2022-12-07T10:23:47.151Z,992.58
2022-12-07T10:24:47.143Z,992.62
2022-12-07T10:25:47.127Z,992.63
2022-12-07T10:26:47.112Z,992.58
2022-12-07T10:27:47.101Z,992.59
2022-12-07T10:28:47.104Z,992.62
2022-12-07T10:29:47.088Z,992.61
2022-12-07T10:30:47.096Z,992.57
2022-12-07T10:31:47.180Z,992.64
2022-12-07T10:32:47.071Z,992.64
2022-12-07T10:33:47.051Z,992.63
2022-12-07T10:35:02.034Z,992.57
2022-12-07T10:35:48.046Z,992.55
2022-12-07T10:36:47.144Z,992.54
2022-12-07T10:37:47.051Z,992.47
2022-12-07T10:38:47.032Z,992.59
2022-12-07T10:39:47.054Z,992.57
2022-12-07T10:40:47.018Z,992.54
2022-12-07T10:41:47.020Z,992.58
2022-12-07T10:42:47.016Z,992.57
2022-12-07T10:43:46.998Z,992.55
2022-12-07T10:44:47.143Z,992.51
2022-12-07T10:46:02.567Z,992.51
2022-12-07T10:46:48.080Z,992.36
2022-12-07T10:47:46.996Z,992.50
2022-12-07T10:48:46.988Z,992.51
2022-12-07T10:49:46.948Z,992.50
2022-12-07T10:50:46.967Z,992.47
2022-12-07T10:51:46.943Z,992.45
2022-12-07T10:52:46.959Z,992.50
2022-12-07T10:53:46.929Z,992.40
2022-12-07T10:54:46.926Z,992.43
2022-12-07T10:55:46.949Z,992.32
2022-12-07T10:56:51.169Z,992.43
2022-12-07T10:57:47.907Z,992.47
2022-12-07T10:58:46.917Z,992.42
2022-12-07T10:59:46.898Z,992.45
2022-12-07T11:00:47.007Z,992.42
2022-12-07T11:01:46.905Z,992.43
2022-12-07T11:02:46.925Z,992.37
2022-12-07T11:03:46.876Z,992.37
2022-12-07T11:04:46.872Z,992.44
2022-12-07T11:05:46.865Z,992.31
2022-12-07T11:06:46.861Z,992.26
2022-12-07T11:07:49.715Z,992.30
2022-12-07T11:08:47.847Z,992.28
2022-12-07T11:10:10.677Z,992.29
2022-12-07T11:10:47.847Z,992.32
2022-12-07T11:11:46.824Z,992.31
2022-12-07T11:12:46.824Z,992.28
2022-12-07T11:13:47.104Z,992.31
2022-12-07T11:14:46.792Z,992.25
2022-12-07T11:15:46.779Z,992.23
2022-12-07T11:16:46.954Z,992.20
2022-12-07T11:17:46.777Z,992.16
2022-12-07T11:18:46.763Z,992.17
2022-12-07T11:19:46.756Z,992.21
2022-12-07T11:20:46.761Z,992.20
2022-12-07T11:21:46.761Z,992.23
2022-12-07T11:22:46.733Z,992.17
2022-12-07T11:23:46.750Z,992.16
2022-12-07T11:24:46.725Z,992.11
2022-12-07T11:25:46.719Z,992.18
2022-12-07T11:26:46.725Z,992.22
2022-12-07T11:27:46.732Z,992.14
2022-12-07T11:28:46.691Z,992.15
2022-12-07T11:29:46.721Z,992.15
2022-12-07T11:30:46.710Z,992.10
2022-12-07T11:31:46.784Z,992.22
2022-12-07T11:32:46.667Z,992.16
2022-12-07T11:33:46.690Z,992.14
2022-12-07T11:34:46.656Z,992.09
2022-12-07T11:35:46.682Z,992.11
2022-12-07T11:36:46.666Z,992.05
2022-12-07T11:37:46.647Z,992.12
2022-12-07T11:38:46.656Z,992.12
2022-12-07T11:39:46.632Z,992.08
2022-12-07T11:40:46.623Z,992.16
2022-12-07T11:41:46.635Z,992.05
2022-12-07T11:42:46.602Z,992.05
2022-12-07T11:43:46.647Z,992.13
2022-12-07T11:44:46.616Z,992.11
2022-12-07T11:45:46.611Z,992.12
2022-12-07T11:46:46.699Z,992.14
2022-12-07T11:47:46.589Z,992.11
2022-12-07T11:48:46.587Z,992.13
2022-12-07T11:49:46.560Z,992.10
2022-12-07T11:50:46.585Z,992.05
2022-12-07T11:51:46.558Z,992.16
2022-12-07T11:52:46.552Z,992.07
2022-12-07T11:53:46.548Z,992.08
2022-12-07T11:54:46.538Z,992.06
2022-12-07T11:55:46.540Z,992.06
2022-12-07T11:56:46.540Z,992.04
2022-12-07T11:57:46.536Z,992.03
2022-12-07T11:58:46.525Z,991.97
2022-12-07T11:59:46.526Z,991.94
2022-12-07T12:00:46.502Z,991.98
2022-12-07T12:01:46.575Z,991.94
2022-12-07T12:02:46.610Z,992.00
2022-12-07T12:03:51.240Z,992.02
2022-12-07T12:04:47.477Z,992.00
2022-12-07T12:05:46.501Z,992.02
2022-12-07T12:06:46.494Z,991.98
2022-12-07T12:09:50.477Z,992.02
2022-12-07T12:10:47.444Z,991.99
2022-12-07T12:11:46.659Z,991.97
2022-12-07T12:14:48.476Z,991.97
2022-12-07T12:15:46.435Z,991.99
2022-12-07T12:16:46.447Z,991.94
2022-12-07T12:17:46.378Z,992.01
2022-12-07T12:18:46.382Z,991.97
2022-12-07T12:19:46.391Z,991.96
2022-12-07T12:20:46.392Z,991.84
2022-12-07T12:21:46.359Z,991.91
2022-12-07T12:22:46.375Z,991.85
2022-12-07T12:23:46.404Z,991.87
2022-12-07T12:24:46.517Z,991.87
2022-12-07T12:25:46.430Z,991.85
2022-12-07T12:26:46.349Z,991.91
2022-12-07T12:27:46.334Z,991.86
2022-12-07T12:28:50.214Z,991.88
2022-12-07T12:29:46.343Z,991.80
2022-12-07T12:30:46.323Z,991.90
2022-12-07T12:31:46.428Z,991.83
2022-12-07T12:32:46.289Z,991.88
2022-12-07T12:33:47.151Z,991.88